sensor_id;sensor_type;location;lat;lon;timestamp;P1;durP1;ratioP1;P2;durP2;ratioP2
15383;SDS011;7790;53.022;12.968;2024-02-21T00:02:20;1.87;;;1.50;;
15383;SDS011;7790;53.022;12.968;2024-02-21T00:06:21;2.73;;;1.40;;
15383;SDS011;7790;53.022;12.968;2024-02-21T00:10:22;2.23;;;1.40;;
15383;SDS011;7790;53.022;12.968;2024-02-21T00:14:23;2.13;;;1.50;;
15383;SDS011;7790;53.022;12.968;2024-02-21T00:18:23;3.43;;;1.47;;
15383;SDS011;7790;53.022;12.968;2024-02-21T00:22:24;2.83;;;1.40;;
15383;SDS011;7790;53.022;12.968;2024-02-21T00:26:28;3.67;;;1.23;;
15383;SDS011;7790;53.022;12.968;2024-02-21T00:30:29;2.23;;;1.40;;
15383;SDS011;7790;53.022;12.968;2024-02-21T00:34:30;3.13;;;1.23;;
15383;SDS011;7790;53.022;12.968;2024-02-21T00:38:30;2.83;;;1.33;;
15383;SDS011;7790;53.022;12.968;2024-02-21T00:42:31;2.33;;;1.50;;
15383;SDS011;7790;53.022;12.968;2024-02-21T00:46:32;1.83;;;1.20;;
15383;SDS011;7790;53.022;12.968;2024-02-21T00:50:33;2.77;;;1.47;;
15383;SDS011;7790;53.022;12.968;2024-02-21T00:54:34;2.07;;;1.40;;
15383;SDS011;7790;53.022;12.968;2024-02-21T00:58:34;2.13;;;1.30;;
15383;SDS011;7790;53.022;12.968;2024-02-21T01:02:35;3.30;;;1.20;;
15383;SDS011;7790;53.022;12.968;2024-02-21T01:06:36;1.77;;;1.20;;
15383;SDS011;7790;53.022;12.968;2024-02-21T01:10:37;3.97;;;1.40;;
15383;SDS011;7790;53.022;12.968;2024-02-21T01:14:38;2.23;;;1.20;;
15383;SDS011;7790;53.022;12.968;2024-02-21T01:18:39;1.47;;;1.00;;
15383;SDS011;7790;53.022;12.968;2024-02-21T01:22:40;3.43;;;1.57;;
15383;SDS011;7790;53.022;12.968;2024-02-21T01:26:41;1.73;;;1.23;;
15383;SDS011;7790;53.022;12.968;2024-02-21T01:30:41;5.07;;;1.50;;
15383;SDS011;7790;53.022;12.968;2024-02-21T01:34:42;2.77;;;1.23;;
15383;SDS011;7790;53.022;12.968;2024-02-21T01:38:43;1.67;;;1.17;;
15383;SDS011;7790;53.022;12.968;2024-02-21T01:42:44;2.10;;;1.33;;
15383;SDS011;7790;53.022;12.968;2024-02-21T01:46:45;2.47;;;1.40;;
15383;SDS011;7790;53.022;12.968;2024-02-21T01:50:46;2.20;;;1.30;;
15383;SDS011;7790;53.022;12.968;2024-02-21T01:54:47;2.27;;;1.20;;
15383;SDS011;7790;53.022;12.968;2024-02-21T01:58:49;1.47;;;1.00;;
15383;SDS011;7790;53.022;12.968;2024-02-21T02:02:51;2.00;;;1.20;;
15383;SDS011;7790;53.022;12.968;2024-02-21T02:06:51;2.00;;;1.40;;
15383;SDS011;7790;53.022;12.968;2024-02-21T02:10:54;2.20;;;1.30;;
15383;SDS011;7790;53.022;12.968;2024-02-21T02:14:59;2.07;;;1.20;;
15383;SDS011;7790;53.022;12.968;2024-02-21T02:19:00;2.70;;;1.20;;
15383;SDS011;7790;53.022;12.968;2024-02-21T02:23:04;2.27;;;1.30;;
15383;SDS011;7790;53.022;12.968;2024-02-21T02:27:10;1.87;;;1.50;;
15383;SDS011;7790;53.022;12.968;2024-02-21T02:31:11;1.93;;;1.30;;
15383;SDS011;7790;53.022;12.968;2024-02-21T02:35:12;2.00;;;1.33;;
15383;SDS011;7790;53.022;12.968;2024-02-21T02:39:13;1.57;;;1.00;;
15383;SDS011;7790;53.022;12.968;2024-02-21T02:43:14;1.37;;;1.03;;
15383;SDS011;7790;53.022;12.968;2024-02-21T02:47:15;1.20;;;0.90;;
15383;SDS011;7790;53.022;12.968;2024-02-21T02:51:16;1.83;;;1.40;;
15383;SDS011;7790;53.022;12.968;2024-02-21T02:55:17;1.97;;;1.20;;
15383;SDS011;7790;53.022;12.968;2024-02-21T02:59:18;2.63;;;1.70;;
15383;SDS011;7790;53.022;12.968;2024-02-21T03:03:18;2.57;;;1.30;;
15383;SDS011;7790;53.022;12.968;2024-02-21T03:07:19;3.23;;;1.50;;
15383;SDS011;7790;53.022;12.968;2024-02-21T03:11:20;2.17;;;1.27;;
15383;SDS011;7790;53.022;12.968;2024-02-21T03:15:28;1.93;;;1.40;;
15383;SDS011;7790;53.022;12.968;2024-02-21T03:19:29;1.97;;;1.30;;
15383;SDS011;7790;53.022;12.968;2024-02-21T03:23:30;2.37;;;1.10;;
15383;SDS011;7790;53.022;12.968;2024-02-21T03:27:31;1.43;;;1.20;;
15383;SDS011;7790;53.022;12.968;2024-02-21T03:31:32;2.27;;;1.33;;
15383;SDS011;7790;53.022;12.968;2024-02-21T03:35:33;2.13;;;1.23;;
15383;SDS011;7790;53.022;12.968;2024-02-21T03:39:34;1.33;;;1.10;;
15383;SDS011;7790;53.022;12.968;2024-02-21T03:43:34;2.20;;;1.33;;
15383;SDS011;7790;53.022;12.968;2024-02-21T03:47:35;2.37;;;1.10;;
15383;SDS011;7790;53.022;12.968;2024-02-21T03:51:36;2.33;;;1.27;;
15383;SDS011;7790;53.022;12.968;2024-02-21T03:55:37;1.60;;;1.23;;
15383;SDS011;7790;53.022;12.968;2024-02-21T03:59:37;2.00;;;1.20;;
15383;SDS011;7790;53.022;12.968;2024-02-21T04:03:40;2.23;;;1.20;;
15383;SDS011;7790;53.022;12.968;2024-02-21T04:07:41;1.10;;;1.00;;
15383;SDS011;7790;53.022;12.968;2024-02-21T04:11:42;2.03;;;1.40;;
15383;SDS011;7790;53.022;12.968;2024-02-21T04:15:43;2.00;;;1.30;;
15383;SDS011;7790;53.022;12.968;2024-02-21T04:19:44;2.57;;;1.40;;
15383;SDS011;7790;53.022;12.968;2024-02-21T04:23:45;2.27;;;1.53;;
15383;SDS011;7790;53.022;12.968;2024-02-21T04:27:46;2.00;;;1.37;;
15383;SDS011;7790;53.022;12.968;2024-02-21T04:31:46;2.23;;;1.40;;
15383;SDS011;7790;53.022;12.968;2024-02-21T04:35:47;2.10;;;1.17;;
15383;SDS011;7790;53.022;12.968;2024-02-21T04:39:48;2.83;;;1.40;;
15383;SDS011;7790;53.022;12.968;2024-02-21T04:43:49;1.40;;;1.10;;
15383;SDS011;7790;53.022;12.968;2024-02-21T04:47:50;2.07;;;1.27;;
15383;SDS011;7790;53.022;12.968;2024-02-21T04:51:51;3.07;;;1.50;;
15383;SDS011;7790;53.022;12.968;2024-02-21T04:55:51;3.30;;;1.37;;
15383;SDS011;7790;53.022;12.968;2024-02-21T04:59:52;2.33;;;1.33;;
15383;SDS011;7790;53.022;12.968;2024-02-21T05:03:53;1.57;;;1.20;;
15383;SDS011;7790;53.022;12.968;2024-02-21T05:07:54;1.47;;;1.20;;
15383;SDS011;7790;53.022;12.968;2024-02-21T05:11:55;1.53;;;1.13;;
15383;SDS011;7790;53.022;12.968;2024-02-21T05:15:56;1.10;;;1.00;;
15383;SDS011;7790;53.022;12.968;2024-02-21T05:19:56;1.53;;;1.17;;
15383;SDS011;7790;53.022;12.968;2024-02-21T05:23:57;1.87;;;1.40;;
15383;SDS011;7790;53.022;12.968;2024-02-21T05:28:00;2.43;;;1.40;;
15383;SDS011;7790;53.022;12.968;2024-02-21T05:32:03;2.30;;;1.27;;
15383;SDS011;7790;53.022;12.968;2024-02-21T05:36:04;2.70;;;1.43;;
15383;SDS011;7790;53.022;12.968;2024-02-21T05:40:05;1.60;;;1.33;;
15383;SDS011;7790;53.022;12.968;2024-02-21T05:44:06;1.93;;;1.20;;
15383;SDS011;7790;53.022;12.968;2024-02-21T05:48:07;2.10;;;1.43;;
15383;SDS011;7790;53.022;12.968;2024-02-21T05:52:08;2.27;;;1.13;;
15383;SDS011;7790;53.022;12.968;2024-02-21T05:56:12;1.90;;;1.17;;
15383;SDS011;7790;53.022;12.968;2024-02-21T06:00:14;2.53;;;1.17;;
15383;SDS011;7790;53.022;12.968;2024-02-21T06:04:15;1.50;;;1.10;;
15383;SDS011;7790;53.022;12.968;2024-02-21T06:08:16;1.73;;;1.20;;
15383;SDS011;7790;53.022;12.968;2024-02-21T06:12:17;1.43;;;1.27;;
15383;SDS011;7790;53.022;12.968;2024-02-21T06:16:18;1.50;;;1.40;;
15383;SDS011;7790;53.022;12.968;2024-02-21T06:20:18;4.40;;;1.57;;
15383;SDS011;7790;53.022;12.968;2024-02-21T06:24:19;3.23;;;1.50;;
15383;SDS011;7790;53.022;12.968;2024-02-21T06:28:20;2.13;;;1.43;;
15383;SDS011;7790;53.022;12.968;2024-02-21T06:32:21;3.13;;;1.77;;
15383;SDS011;7790;53.022;12.968;2024-02-21T06:36:21;2.90;;;1.40;;
15383;SDS011;7790;53.022;12.968;2024-02-21T06:40:23;8.60;;;1.63;;
15383;SDS011;7790;53.022;12.968;2024-02-21T06:44:24;3.50;;;1.70;;
15383;SDS011;7790;53.022;12.968;2024-02-21T06:48:25;4.83;;;1.90;;
15383;SDS011;7790;53.022;12.968;2024-02-21T06:52:26;2.03;;;1.50;;
15383;SDS011;7790;53.022;12.968;2024-02-21T06:56:27;2.93;;;1.77;;
15383;SDS011;7790;53.022;12.968;2024-02-21T07:00:29;3.20;;;1.80;;
15383;SDS011;7790;53.022;12.968;2024-02-21T07:04:30;3.07;;;1.70;;
15383;SDS011;7790;53.022;12.968;2024-02-21T07:08:30;2.93;;;1.60;;
15383;SDS011;7790;53.022;12.968;2024-02-21T07:12:31;1.83;;;1.47;;
15383;SDS011;7790;53.022;12.968;2024-02-21T07:16:32;3.87;;;1.83;;
15383;SDS011;7790;53.022;12.968;2024-02-21T07:20:33;2.07;;;1.87;;
15383;SDS011;7790;53.022;12.968;2024-02-21T07:24:34;2.77;;;1.80;;
15383;SDS011;7790;53.022;12.968;2024-02-21T07:28:34;5.77;;;1.90;;
15383;SDS011;7790;53.022;12.968;2024-02-21T07:32:35;2.87;;;1.97;;
15383;SDS011;7790;53.022;12.968;2024-02-21T07:36:36;2.00;;;1.73;;
15383;SDS011;7790;53.022;12.968;2024-02-21T07:40:39;1.50;;;1.40;;
15383;SDS011;7790;53.022;12.968;2024-02-21T07:44:39;1.97;;;1.80;;
15383;SDS011;7790;53.022;12.968;2024-02-21T07:48:40;2.37;;;2.03;;
15383;SDS011;7790;53.022;12.968;2024-02-21T07:52:41;3.70;;;1.70;;
15383;SDS011;7790;53.022;12.968;2024-02-21T07:56:42;2.60;;;1.77;;
15383;SDS011;7790;53.022;12.968;2024-02-21T08:00:43;1.70;;;1.60;;
15383;SDS011;7790;53.022;12.968;2024-02-21T08:04:44;2.10;;;1.90;;
15383;SDS011;7790;53.022;12.968;2024-02-21T08:08:44;2.70;;;1.73;;
15383;SDS011;7790;53.022;12.968;2024-02-21T08:12:45;2.27;;;1.60;;
15383;SDS011;7790;53.022;12.968;2024-02-21T08:16:46;2.30;;;1.87;;
15383;SDS011;7790;53.022;12.968;2024-02-21T08:20:47;1.93;;;1.53;;
15383;SDS011;7790;53.022;12.968;2024-02-21T08:24:48;2.27;;;1.67;;
15383;SDS011;7790;53.022;12.968;2024-02-21T08:28:50;4.27;;;2.07;;
15383;SDS011;7790;53.022;12.968;2024-02-21T08:32:51;2.00;;;1.60;;
15383;SDS011;7790;53.022;12.968;2024-02-21T08:36:54;2.17;;;1.70;;
15383;SDS011;7790;53.022;12.968;2024-02-21T08:40:54;1.70;;;1.60;;
15383;SDS011;7790;53.022;12.968;2024-02-21T08:44:55;2.77;;;1.60;;
15383;SDS011;7790;53.022;12.968;2024-02-21T08:48:56;6.30;;;1.87;;
15383;SDS011;7790;53.022;12.968;2024-02-21T08:52:57;3.20;;;1.70;;
15383;SDS011;7790;53.022;12.968;2024-02-21T08:56:58;5.13;;;1.80;;
15383;SDS011;7790;53.022;12.968;2024-02-21T09:00:59;3.83;;;2.00;;
15383;SDS011;7790;53.022;12.968;2024-02-21T09:04:59;2.00;;;1.50;;
15383;SDS011;7790;53.022;12.968;2024-02-21T09:09:00;1.50;;;1.40;;
15383;SDS011;7790;53.022;12.968;2024-02-21T09:13:01;1.80;;;1.60;;
15383;SDS011;7790;53.022;12.968;2024-02-21T09:17:03;6.33;;;1.90;;
15383;SDS011;7790;53.022;12.968;2024-02-21T09:21:04;4.17;;;1.83;;
15383;SDS011;7790;53.022;12.968;2024-02-21T09:25:05;2.23;;;1.60;;
15383;SDS011;7790;53.022;12.968;2024-02-21T09:29:07;2.63;;;1.70;;
15383;SDS011;7790;53.022;12.968;2024-02-21T09:33:08;4.30;;;1.70;;
15383;SDS011;7790;53.022;12.968;2024-02-21T09:37:09;6.43;;;1.47;;
15383;SDS011;7790;53.022;12.968;2024-02-21T09:41:16;2.90;;;1.67;;
15383;SDS011;7790;53.022;12.968;2024-02-21T09:45:22;1.83;;;1.53;;
15383;SDS011;7790;53.022;12.968;2024-02-21T09:49:30;1.67;;;1.53;;
15383;SDS011;7790;53.022;12.968;2024-02-21T09:53:38;3.60;;;1.60;;
15383;SDS011;7790;53.022;12.968;2024-02-21T09:57:40;2.30;;;1.50;;
15383;SDS011;7790;53.022;12.968;2024-02-21T10:01:42;1.97;;;1.20;;
15383;SDS011;7790;53.022;12.968;2024-02-21T10:05:48;8.53;;;1.57;;
15383;SDS011;7790;53.022;12.968;2024-02-21T10:10:02;7.10;;;1.63;;
15383;SDS011;7790;53.022;12.968;2024-02-21T10:14:06;2.07;;;1.30;;
15383;SDS011;7790;53.022;12.968;2024-02-21T10:18:07;1.90;;;1.57;;
15383;SDS011;7790;53.022;12.968;2024-02-21T10:22:08;3.17;;;1.40;;
15383;SDS011;7790;53.022;12.968;2024-02-21T10:26:10;2.87;;;1.53;;
15383;SDS011;7790;53.022;12.968;2024-02-21T10:30:14;2.23;;;1.50;;
15383;SDS011;7790;53.022;12.968;2024-02-21T10:34:16;3.17;;;1.53;;
15383;SDS011;7790;53.022;12.968;2024-02-21T10:38:18;3.30;;;1.40;;
15383;SDS011;7790;53.022;12.968;2024-02-21T10:42:19;2.17;;;1.30;;
15383;SDS011;7790;53.022;12.968;2024-02-21T10:46:23;3.33;;;1.20;;
15383;SDS011;7790;53.022;12.968;2024-02-21T10:50:25;2.03;;;1.30;;
15383;SDS011;7790;53.022;12.968;2024-02-21T10:58:52;3.13;;;1.27;;
15383;SDS011;7790;53.022;12.968;2024-02-21T11:02:54;2.63;;;1.13;;
15383;SDS011;7790;53.022;12.968;2024-02-21T11:06:54;1.70;;;1.10;;
15383;SDS011;7790;53.022;12.968;2024-02-21T11:10:58;1.30;;;1.20;;
15383;SDS011;7790;53.022;12.968;2024-02-21T11:15:04;1.30;;;1.20;;
15383;SDS011;7790;53.022;12.968;2024-02-21T11:19:10;1.87;;;1.57;;
15383;SDS011;7790;53.022;12.968;2024-02-21T11:23:26;3.90;;;1.60;;
15383;SDS011;7790;53.022;12.968;2024-02-21T11:27:27;1.90;;;1.47;;
15383;SDS011;7790;53.022;12.968;2024-02-21T11:31:37;2.00;;;1.57;;
15383;SDS011;7790;53.022;12.968;2024-02-21T11:35:40;2.10;;;1.40;;
15383;SDS011;7790;53.022;12.968;2024-02-21T11:39:41;1.87;;;1.30;;
15383;SDS011;7790;53.022;12.968;2024-02-21T11:43:42;1.83;;;1.10;;
15383;SDS011;7790;53.022;12.968;2024-02-21T11:47:42;1.27;;;1.23;;
15383;SDS011;7790;53.022;12.968;2024-02-21T11:51:43;1.57;;;1.30;;
15383;SDS011;7790;53.022;12.968;2024-02-21T11:55:45;3.03;;;1.23;;
15383;SDS011;7790;53.022;12.968;2024-02-21T11:59:46;1.47;;;0.93;;
15383;SDS011;7790;53.022;12.968;2024-02-21T12:03:48;2.87;;;1.00;;
15383;SDS011;7790;53.022;12.968;2024-02-21T12:07:49;1.77;;;1.27;;
15383;SDS011;7790;53.022;12.968;2024-02-21T12:12:00;2.27;;;1.10;;
15383;SDS011;7790;53.022;12.968;2024-02-21T12:16:05;1.23;;;1.10;;
15383;SDS011;7790;53.022;12.968;2024-02-21T12:20:07;2.57;;;1.07;;
15383;SDS011;7790;53.022;12.968;2024-02-21T12:24:15;4.17;;;1.30;;
15383;SDS011;7790;53.022;12.968;2024-02-21T12:28:16;1.80;;;1.33;;
15383;SDS011;7790;53.022;12.968;2024-02-21T12:32:17;1.37;;;1.20;;
15383;SDS011;7790;53.022;12.968;2024-02-21T12:36:18;1.33;;;1.17;;
15383;SDS011;7790;53.022;12.968;2024-02-21T12:40:19;1.37;;;1.20;;
15383;SDS011;7790;53.022;12.968;2024-02-21T12:44:20;1.20;;;1.03;;
15383;SDS011;7790;53.022;12.968;2024-02-21T12:48:21;1.10;;;1.00;;
15383;SDS011;7790;53.022;12.968;2024-02-21T12:52:23;1.13;;;1.00;;
15383;SDS011;7790;53.022;12.968;2024-02-21T12:56:24;1.03;;;0.93;;
15383;SDS011;7790;53.022;12.968;2024-02-21T13:00:29;1.63;;;1.10;;
15383;SDS011;7790;53.022;12.968;2024-02-21T13:04:31;1.67;;;1.17;;
15383;SDS011;7790;53.022;12.968;2024-02-21T13:08:32;2.07;;;1.40;;
15383;SDS011;7790;53.022;12.968;2024-02-21T13:12:34;2.47;;;1.33;;
15383;SDS011;7790;53.022;12.968;2024-02-21T13:16:35;1.47;;;1.17;;
15383;SDS011;7790;53.022;12.968;2024-02-21T13:20:39;1.10;;;1.10;;
15383;SDS011;7790;53.022;12.968;2024-02-21T13:24:40;1.30;;;1.20;;
15383;SDS011;7790;53.022;12.968;2024-02-21T13:28:41;1.27;;;1.00;;
15383;SDS011;7790;53.022;12.968;2024-02-21T13:32:43;1.60;;;1.10;;
15383;SDS011;7790;53.022;12.968;2024-02-21T13:36:46;1.03;;;1.00;;
15383;SDS011;7790;53.022;12.968;2024-02-21T13:40:47;1.30;;;1.20;;
15383;SDS011;7790;53.022;12.968;2024-02-21T13:44:47;1.30;;;1.20;;
15383;SDS011;7790;53.022;12.968;2024-02-21T13:48:48;1.10;;;0.90;;
15383;SDS011;7790;53.022;12.968;2024-02-21T13:52:50;0.93;;;0.90;;
15383;SDS011;7790;53.022;12.968;2024-02-21T13:56:51;1.80;;;1.30;;
15383;SDS011;7790;53.022;12.968;2024-02-21T14:00:52;0.97;;;0.97;;
15383;SDS011;7790;53.022;12.968;2024-02-21T14:04:53;1.23;;;1.00;;
15383;SDS011;7790;53.022;12.968;2024-02-21T14:08:55;2.83;;;1.27;;
15383;SDS011;7790;53.022;12.968;2024-02-21T14:12:56;2.03;;;1.23;;
15383;SDS011;7790;53.022;12.968;2024-02-21T14:16:57;2.80;;;1.30;;
15383;SDS011;7790;53.022;12.968;2024-02-21T14:20:58;3.03;;;1.27;;
15383;SDS011;7790;53.022;12.968;2024-02-21T14:24:58;2.20;;;1.30;;
15383;SDS011;7790;53.022;12.968;2024-02-21T14:29:00;1.50;;;1.00;;
15383;SDS011;7790;53.022;12.968;2024-02-21T14:33:01;1.10;;;1.10;;
15383;SDS011;7790;53.022;12.968;2024-02-21T14:37:01;2.60;;;1.20;;
15383;SDS011;7790;53.022;12.968;2024-02-21T14:41:04;2.40;;;1.20;;
15383;SDS011;7790;53.022;12.968;2024-02-21T14:45:05;1.10;;;1.00;;
15383;SDS011;7790;53.022;12.968;2024-02-21T14:49:06;1.33;;;1.07;;
15383;SDS011;7790;53.022;12.968;2024-02-21T14:53:07;1.97;;;1.40;;
15383;SDS011;7790;53.022;12.968;2024-02-21T14:57:08;2.07;;;1.13;;
15383;SDS011;7790;53.022;12.968;2024-02-21T15:01:09;1.43;;;1.00;;
15383;SDS011;7790;53.022;12.968;2024-02-21T15:05:10;0.97;;;0.97;;
15383;SDS011;7790;53.022;12.968;2024-02-21T15:09:12;2.20;;;1.10;;
15383;SDS011;7790;53.022;12.968;2024-02-21T15:13:13;2.03;;;1.10;;
15383;SDS011;7790;53.022;12.968;2024-02-21T15:17:14;1.30;;;1.20;;
15383;SDS011;7790;53.022;12.968;2024-02-21T15:21:15;4.17;;;1.07;;
15383;SDS011;7790;53.022;12.968;2024-02-21T15:25:16;2.17;;;1.33;;
15383;SDS011;7790;53.022;12.968;2024-02-21T15:29:17;1.20;;;1.00;;
15383;SDS011;7790;53.022;12.968;2024-02-21T15:33:18;2.43;;;1.20;;
15383;SDS011;7790;53.022;12.968;2024-02-21T15:37:19;2.10;;;1.10;;
15383;SDS011;7790;53.022;12.968;2024-02-21T15:41:20;1.47;;;1.07;;
15383;SDS011;7790;53.022;12.968;2024-02-21T15:45:22;1.37;;;1.00;;
15383;SDS011;7790;53.022;12.968;2024-02-21T15:49:22;1.10;;;1.00;;
15383;SDS011;7790;53.022;12.968;2024-02-21T15:53:23;1.10;;;1.00;;
15383;SDS011;7790;53.022;12.968;2024-02-21T15:57:24;1.20;;;1.10;;
15383;SDS011;7790;53.022;12.968;2024-02-21T16:01:25;1.40;;;1.07;;
15383;SDS011;7790;53.022;12.968;2024-02-21T16:05:26;2.50;;;1.20;;
15383;SDS011;7790;53.022;12.968;2024-02-21T16:09:28;1.27;;;1.00;;
15383;SDS011;7790;53.022;12.968;2024-02-21T16:13:29;1.97;;;0.83;;
15383;SDS011;7790;53.022;12.968;2024-02-21T16:17:29;3.17;;;1.33;;
15383;SDS011;7790;53.022;12.968;2024-02-21T16:21:31;4.03;;;1.20;;
15383;SDS011;7790;53.022;12.968;2024-02-21T16:25:32;2.80;;;1.30;;
15383;SDS011;7790;53.022;12.968;2024-02-21T16:29:33;3.00;;;1.20;;
15383;SDS011;7790;53.022;12.968;2024-02-21T16:33:34;2.00;;;0.93;;
15383;SDS011;7790;53.022;12.968;2024-02-21T16:37:35;4.97;;;0.90;;
15383;SDS011;7790;53.022;12.968;2024-02-21T16:41:36;1.00;;;0.90;;
15383;SDS011;7790;53.022;12.968;2024-02-21T16:45:37;2.07;;;0.90;;
15383;SDS011;7790;53.022;12.968;2024-02-21T16:49:38;1.20;;;0.90;;
15383;SDS011;7790;53.022;12.968;2024-02-21T16:53:39;1.53;;;0.93;;
15383;SDS011;7790;53.022;12.968;2024-02-21T16:57:40;1.10;;;0.90;;
15383;SDS011;7790;53.022;12.968;2024-02-21T17:01:41;2.73;;;1.27;;
15383;SDS011;7790;53.022;12.968;2024-02-21T17:05:41;1.50;;;1.07;;
15383;SDS011;7790;53.022;12.968;2024-02-21T17:09:42;2.37;;;0.93;;
15383;SDS011;7790;53.022;12.968;2024-02-21T17:13:43;2.63;;;0.87;;
15383;SDS011;7790;53.022;12.968;2024-02-21T17:17:44;4.10;;;1.00;;
15383;SDS011;7790;53.022;12.968;2024-02-21T17:21:45;2.20;;;0.90;;
15383;SDS011;7790;53.022;12.968;2024-02-21T17:25:46;2.83;;;0.73;;
15383;SDS011;7790;53.022;12.968;2024-02-21T17:29:48;1.17;;;0.70;;
15383;SDS011;7790;53.022;12.968;2024-02-21T17:33:49;1.63;;;1.00;;
15383;SDS011;7790;53.022;12.968;2024-02-21T17:37:50;2.20;;;1.07;;
15383;SDS011;7790;53.022;12.968;2024-02-21T17:41:51;1.20;;;1.10;;
15383;SDS011;7790;53.022;12.968;2024-02-21T17:45:53;1.03;;;0.93;;
15383;SDS011;7790;53.022;12.968;2024-02-21T17:49:56;5.23;;;1.50;;
15383;SDS011;7790;53.022;12.968;2024-02-21T17:53:57;5.30;;;0.97;;
15383;SDS011;7790;53.022;12.968;2024-02-21T17:57:58;3.63;;;1.20;;
15383;SDS011;7790;53.022;12.968;2024-02-21T18:01:59;3.73;;;1.10;;
15383;SDS011;7790;53.022;12.968;2024-02-21T18:06:00;2.00;;;1.30;;
15383;SDS011;7790;53.022;12.968;2024-02-21T18:10:01;2.40;;;0.97;;
15383;SDS011;7790;53.022;12.968;2024-02-21T18:14:03;5.10;;;1.17;;
15383;SDS011;7790;53.022;12.968;2024-02-21T18:18:05;2.67;;;1.30;;
15383;SDS011;7790;53.022;12.968;2024-02-21T18:22:06;6.53;;;1.73;;
15383;SDS011;7790;53.022;12.968;2024-02-21T18:26:10;4.83;;;1.37;;
15383;SDS011;7790;53.022;12.968;2024-02-21T18:30:10;2.87;;;1.30;;
15383;SDS011;7790;53.022;12.968;2024-02-21T18:34:11;1.37;;;1.10;;
15383;SDS011;7790;53.022;12.968;2024-02-21T18:38:13;2.43;;;1.27;;
15383;SDS011;7790;53.022;12.968;2024-02-21T18:42:14;1.97;;;1.30;;
15383;SDS011;7790;53.022;12.968;2024-02-21T18:46:15;2.97;;;1.00;;
15383;SDS011;7790;53.022;12.968;2024-02-21T18:50:16;5.73;;;2.03;;
15383;SDS011;7790;53.022;12.968;2024-02-21T18:54:17;1.33;;;1.10;;
15383;SDS011;7790;53.022;12.968;2024-02-21T18:58:18;2.03;;;1.10;;
15383;SDS011;7790;53.022;12.968;2024-02-21T19:02:19;1.70;;;1.17;;
15383;SDS011;7790;53.022;12.968;2024-02-21T19:06:20;5.50;;;1.27;;
15383;SDS011;7790;53.022;12.968;2024-02-21T19:10:20;2.60;;;1.17;;
15383;SDS011;7790;53.022;12.968;2024-02-21T19:14:21;1.73;;;0.90;;
15383;SDS011;7790;53.022;12.968;2024-02-21T19:18:22;3.50;;;0.90;;
15383;SDS011;7790;53.022;12.968;2024-02-21T19:22:23;2.37;;;1.07;;
15383;SDS011;7790;53.022;12.968;2024-02-21T19:26:29;1.10;;;1.00;;
15383;SDS011;7790;53.022;12.968;2024-02-21T19:30:30;1.47;;;1.07;;
15383;SDS011;7790;53.022;12.968;2024-02-21T19:34:30;1.30;;;0.90;;
15383;SDS011;7790;53.022;12.968;2024-02-21T19:38:31;1.23;;;0.93;;
15383;SDS011;7790;53.022;12.968;2024-02-21T19:42:32;2.00;;;1.20;;
15383;SDS011;7790;53.022;12.968;2024-02-21T19:46:33;1.30;;;1.00;;
15383;SDS011;7790;53.022;12.968;2024-02-21T19:50:39;0.87;;;0.80;;
15383;SDS011;7790;53.022;12.968;2024-02-21T19:54:40;1.77;;;1.07;;
15383;SDS011;7790;53.022;12.968;2024-02-21T19:58:41;0.87;;;0.80;;
15383;SDS011;7790;53.022;12.968;2024-02-21T20:02:42;0.90;;;0.87;;
15383;SDS011;7790;53.022;12.968;2024-02-21T20:06:43;1.47;;;0.80;;
15383;SDS011;7790;53.022;12.968;2024-02-21T20:10:44;1.10;;;1.00;;
15383;SDS011;7790;53.022;12.968;2024-02-21T20:14:45;1.03;;;0.90;;
15383;SDS011;7790;53.022;12.968;2024-02-21T20:18:46;1.93;;;1.00;;
15383;SDS011;7790;53.022;12.968;2024-02-21T20:22:47;1.20;;;1.10;;
15383;SDS011;7790;53.022;12.968;2024-02-21T20:26:48;1.47;;;0.90;;
15383;SDS011;7790;53.022;12.968;2024-02-21T20:30:49;1.43;;;0.80;;
15383;SDS011;7790;53.022;12.968;2024-02-21T20:34:49;0.90;;;0.90;;
15383;SDS011;7790;53.022;12.968;2024-02-21T20:38:50;0.93;;;0.83;;
15383;SDS011;7790;53.022;12.968;2024-02-21T20:42:51;1.03;;;0.90;;
15383;SDS011;7790;53.022;12.968;2024-02-21T20:46:53;1.83;;;1.17;;
15383;SDS011;7790;53.022;12.968;2024-02-21T20:50:54;1.10;;;1.00;;
15383;SDS011;7790;53.022;12.968;2024-02-21T20:54:56;1.10;;;1.00;;
15383;SDS011;7790;53.022;12.968;2024-02-21T20:58:57;1.10;;;1.00;;
15383;SDS011;7790;53.022;12.968;2024-02-21T21:02:58;1.17;;;0.90;;
15383;SDS011;7790;53.022;12.968;2024-02-21T21:06:59;1.20;;;1.10;;
15383;SDS011;7790;53.022;12.968;2024-02-21T21:11:01;2.70;;;1.10;;
15383;SDS011;7790;53.022;12.968;2024-02-21T21:15:03;1.57;;;1.10;;
15383;SDS011;7790;53.022;12.968;2024-02-21T21:19:05;1.90;;;1.30;;
15383;SDS011;7790;53.022;12.968;2024-02-21T21:23:06;1.37;;;0.90;;
15383;SDS011;7790;53.022;12.968;2024-02-21T21:27:07;2.87;;;0.97;;
15383;SDS011;7790;53.022;12.968;2024-02-21T21:31:08;2.00;;;0.90;;
15383;SDS011;7790;53.022;12.968;2024-02-21T21:35:09;1.83;;;1.00;;
15383;SDS011;7790;53.022;12.968;2024-02-21T21:39:10;2.20;;;1.20;;
15383;SDS011;7790;53.022;12.968;2024-02-21T21:43:16;1.53;;;1.20;;
15383;SDS011;7790;53.022;12.968;2024-02-21T21:47:22;1.13;;;1.00;;
15383;SDS011;7790;53.022;12.968;2024-02-21T21:51:24;1.47;;;0.90;;
15383;SDS011;7790;53.022;12.968;2024-02-21T21:55:28;1.10;;;0.90;;
15383;SDS011;7790;53.022;12.968;2024-02-21T21:59:30;1.50;;;0.80;;
15383;SDS011;7790;53.022;12.968;2024-02-21T22:03:31;1.57;;;1.10;;
15383;SDS011;7790;53.022;12.968;2024-02-21T22:07:31;1.23;;;0.93;;
15383;SDS011;7790;53.022;12.968;2024-02-21T22:11:32;2.10;;;0.93;;
15383;SDS011;7790;53.022;12.968;2024-02-21T22:15:33;2.23;;;0.93;;
15383;SDS011;7790;53.022;12.968;2024-02-21T22:19:34;1.00;;;0.80;;
15383;SDS011;7790;53.022;12.968;2024-02-21T22:23:35;1.27;;;1.00;;
15383;SDS011;7790;53.022;12.968;2024-02-21T22:27:36;1.10;;;1.00;;
15383;SDS011;7790;53.022;12.968;2024-02-21T22:31:36;1.73;;;1.20;;
15383;SDS011;7790;53.022;12.968;2024-02-21T22:35:40;1.93;;;1.00;;
15383;SDS011;7790;53.022;12.968;2024-02-21T22:39:42;0.80;;;0.80;;
15383;SDS011;7790;53.022;12.968;2024-02-21T22:43:43;1.80;;;1.20;;
15383;SDS011;7790;53.022;12.968;2024-02-21T22:47:46;2.30;;;1.07;;
15383;SDS011;7790;53.022;12.968;2024-02-21T22:51:47;1.27;;;0.97;;
15383;SDS011;7790;53.022;12.968;2024-02-21T22:55:48;1.53;;;0.93;;
15383;SDS011;7790;53.022;12.968;2024-02-21T22:59:49;1.13;;;1.03;;
15383;SDS011;7790;53.022;12.968;2024-02-21T23:03:49;1.20;;;0.90;;
15383;SDS011;7790;53.022;12.968;2024-02-21T23:07:50;0.97;;;0.80;;
15383;SDS011;7790;53.022;12.968;2024-02-21T23:11:52;1.27;;;1.00;;
15383;SDS011;7790;53.022;12.968;2024-02-21T23:15:53;1.00;;;0.90;;
15383;SDS011;7790;53.022;12.968;2024-02-21T23:19:54;1.17;;;0.93;;
15383;SDS011;7790;53.022;12.968;2024-02-21T23:23:55;1.20;;;1.10;;
15383;SDS011;7790;53.022;12.968;2024-02-21T23:27:56;1.40;;;1.10;;
15383;SDS011;7790;53.022;12.968;2024-02-21T23:31:57;2.20;;;0.90;;
15383;SDS011;7790;53.022;12.968;2024-02-21T23:35:57;1.10;;;0.90;;
15383;SDS011;7790;53.022;12.968;2024-02-21T23:39:58;0.93;;;0.80;;
15383;SDS011;7790;53.022;12.968;2024-02-21T23:43:59;1.57;;;0.93;;
15383;SDS011;7790;53.022;12.968;2024-02-21T23:48:00;1.57;;;1.00;;
15383;SDS011;7790;53.022;12.968;2024-02-21T23:52:01;1.03;;;0.87;;
15383;SDS011;7790;53.022;12.968;2024-02-21T23:56:07;0.70;;;0.70;;
